Mooreton, North Dakota
Current Conditions -  °F | °C
As of 2:55 PM on Friday 31 Oct 2014 (Local Time) from KBWP Reporting Station
Clear Clear  
Wind Chill: 30°   Ceiling: Unl
Heat Index: 36°   Visibility: 10mi
Dew Point: 19°   Wind: 7mph
Humidity: 52%   Direction: 190°S
Pressure: 30.51"   Gusts: NA
Location:  46.27°N, 96.88°W
Report Text: KBWP 311955Z AUTO 19006KT 10SM CLR 02/M07 A3051 RMK AO1
Loading
Personal Weather Stations






























Interactive Weather Map
Tropical Storm Tracking
New forecast layout! Learn more

10-Day Weather Forecast

Advertisements
Track Severe Weather on mobile